Weather at Myttinge Heliport

Public forecast

Using degrees Celsius for public forecast. Weather courtesy of forecast.io.

Closest aviation weather report (METAR) to Myttinge Heliport

Closest report is Stockholm-Bromma Airport, 16.4 nm (30.3 km) W. Retrieved 2022/01/19 23:20 UTC (25 minutes ago):

ESSB 192320Z AUTO 01015G27KT 320V050 1200 R12/P2000N R30/P2000N -SN VV010 00/M00 Q0985

Closest aviation forecast (TAF) to Myttinge Heliport

Forecast is more than 12 hours old.

Closest forecast is Stockholm-Bromma Airport, 16.4 nm (30.3 km) W. Retrieved 2017/03/27 06:35 UTC (5 years ago):

TAF ESSB 270530Z 2706/2724 27008KT CAVOK BECMG 2710/2713 29015G25KT